sensor_id;sensor_type;location;lat;lon;timestamp;P1;durP1;ratioP1;P2;durP2;ratioP2
22826;SDS011;11580;52.562;13.418;2023-11-21T00:00:14;12.27;;;10.97;;
22826;SDS011;11580;52.562;13.418;2023-11-21T00:02:43;11.17;;;10.07;;
22826;SDS011;11580;52.562;13.418;2023-11-21T00:05:12;11.83;;;10.73;;
22826;SDS011;11580;52.562;13.418;2023-11-21T00:07:40;12.37;;;10.40;;
22826;SDS011;11580;52.562;13.418;2023-11-21T00:10:09;11.00;;;10.00;;
22826;SDS011;11580;52.562;13.418;2023-11-21T00:12:39;11.80;;;10.60;;
22826;SDS011;11580;52.562;13.418;2023-11-21T00:15:07;13.20;;;11.90;;
22826;SDS011;11580;52.562;13.418;2023-11-21T00:17:38;11.70;;;10.60;;
22826;SDS011;11580;52.562;13.418;2023-11-21T00:20:06;15.80;;;13.07;;
22826;SDS011;11580;52.562;13.418;2023-11-21T00:22:34;14.40;;;12.30;;
22826;SDS011;11580;52.562;13.418;2023-11-21T00:25:02;14.00;;;12.53;;
22826;SDS011;11580;52.562;13.418;2023-11-21T00:27:30;13.27;;;12.00;;
22826;SDS011;11580;52.562;13.418;2023-11-21T00:29:57;15.50;;;13.83;;
22826;SDS011;11580;52.562;13.418;2023-11-21T00:32:24;14.70;;;13.17;;
22826;SDS011;11580;52.562;13.418;2023-11-21T00:34:53;17.27;;;13.70;;
22826;SDS011;11580;52.562;13.418;2023-11-21T00:37:20;17.57;;;13.90;;
22826;SDS011;11580;52.562;13.418;2023-11-21T00:39:49;17.47;;;14.53;;
22826;SDS011;11580;52.562;13.418;2023-11-21T00:42:16;22.13;;;15.83;;
22826;SDS011;11580;52.562;13.418;2023-11-21T00:44:44;20.87;;;16.67;;
22826;SDS011;11580;52.562;13.418;2023-11-21T00:47:11;20.80;;;17.00;;
22826;SDS011;11580;52.562;13.418;2023-11-21T00:49:39;27.60;;;20.20;;
22826;SDS011;11580;52.562;13.418;2023-11-21T00:52:07;23.00;;;16.90;;
22826;SDS011;11580;52.562;13.418;2023-11-21T00:54:35;26.80;;;19.57;;
22826;SDS011;11580;52.562;13.418;2023-11-21T00:57:02;30.03;;;22.00;;
22826;SDS011;11580;52.562;13.418;2023-11-21T00:59:29;28.67;;;22.90;;
22826;SDS011;11580;52.562;13.418;2023-11-21T01:01:56;34.20;;;22.67;;
22826;SDS011;11580;52.562;13.418;2023-11-21T01:04:25;33.30;;;22.63;;
22826;SDS011;11580;52.562;13.418;2023-11-21T01:06:53;27.70;;;22.57;;
22826;SDS011;11580;52.562;13.418;2023-11-21T01:09:22;30.40;;;23.30;;
22826;SDS011;11580;52.562;13.418;2023-11-21T01:11:50;31.20;;;23.63;;
22826;SDS011;11580;52.562;13.418;2023-11-21T01:14:18;32.53;;;23.17;;
22826;SDS011;11580;52.562;13.418;2023-11-21T01:16:46;31.57;;;21.40;;
22826;SDS011;11580;52.562;13.418;2023-11-21T01:19:14;33.70;;;21.90;;
22826;SDS011;11580;52.562;13.418;2023-11-21T01:21:41;29.30;;;23.33;;
22826;SDS011;11580;52.562;13.418;2023-11-21T01:24:08;31.03;;;21.33;;
22826;SDS011;11580;52.562;13.418;2023-11-21T01:26:37;31.93;;;21.97;;
22826;SDS011;11580;52.562;13.418;2023-11-21T01:29:04;26.27;;;20.30;;
22826;SDS011;11580;52.562;13.418;2023-11-21T01:31:31;29.50;;;19.53;;
22826;SDS011;11580;52.562;13.418;2023-11-21T01:33:58;34.57;;;21.70;;
22826;SDS011;11580;52.562;13.418;2023-11-21T01:36:29;29.63;;;18.43;;
22826;SDS011;11580;52.562;13.418;2023-11-21T01:38:58;23.60;;;17.43;;
22826;SDS011;11580;52.562;13.418;2023-11-21T01:41:25;22.07;;;16.47;;
22826;SDS011;11580;52.562;13.418;2023-11-21T01:43:55;21.33;;;16.00;;
22826;SDS011;11580;52.562;13.418;2023-11-21T01:46:23;20.37;;;14.63;;
22826;SDS011;11580;52.562;13.418;2023-11-21T01:48:50;18.73;;;13.33;;
22826;SDS011;11580;52.562;13.418;2023-11-21T01:51:19;16.00;;;13.17;;
22826;SDS011;11580;52.562;13.418;2023-11-21T01:53:46;15.90;;;12.87;;
22826;SDS011;11580;52.562;13.418;2023-11-21T01:56:15;18.40;;;12.33;;
22826;SDS011;11580;52.562;13.418;2023-11-21T01:58:43;18.60;;;11.80;;
22826;SDS011;11580;52.562;13.418;2023-11-21T02:01:13;18.20;;;13.00;;
22826;SDS011;11580;52.562;13.418;2023-11-21T02:03:40;13.47;;;12.07;;
22826;SDS011;11580;52.562;13.418;2023-11-21T02:06:08;16.10;;;11.77;;
22826;SDS011;11580;52.562;13.418;2023-11-21T02:08:35;13.57;;;11.03;;
22826;SDS011;11580;52.562;13.418;2023-11-21T02:11:03;13.37;;;10.60;;
22826;SDS011;11580;52.562;13.418;2023-11-21T02:13:31;13.37;;;9.37;;
22826;SDS011;11580;52.562;13.418;2023-11-21T02:15:59;14.77;;;11.57;;
22826;SDS011;11580;52.562;13.418;2023-11-21T02:18:28;11.43;;;9.30;;
22826;SDS011;11580;52.562;13.418;2023-11-21T02:20:55;11.93;;;9.63;;
22826;SDS011;11580;52.562;13.418;2023-11-21T02:23:24;11.37;;;9.70;;
22826;SDS011;11580;52.562;13.418;2023-11-21T02:25:54;9.10;;;8.07;;
22826;SDS011;11580;52.562;13.418;2023-11-21T02:28:21;10.57;;;8.67;;
22826;SDS011;11580;52.562;13.418;2023-11-21T02:30:51;11.43;;;9.67;;
22826;SDS011;11580;52.562;13.418;2023-11-21T02:33:20;10.87;;;8.83;;
22826;SDS011;11580;52.562;13.418;2023-11-21T02:35:48;9.17;;;8.00;;
22826;SDS011;11580;52.562;13.418;2023-11-21T02:38:16;10.70;;;9.70;;
22826;SDS011;11580;52.562;13.418;2023-11-21T02:40:46;14.10;;;9.43;;
22826;SDS011;11580;52.562;13.418;2023-11-21T02:43:14;9.00;;;7.83;;
22826;SDS011;11580;52.562;13.418;2023-11-21T02:45:41;10.80;;;8.70;;
22826;SDS011;11580;52.562;13.418;2023-11-21T02:48:11;9.80;;;8.70;;
22826;SDS011;11580;52.562;13.418;2023-11-21T02:50:39;8.53;;;7.73;;
22826;SDS011;11580;52.562;13.418;2023-11-21T02:53:06;11.23;;;9.03;;
22826;SDS011;11580;52.562;13.418;2023-11-21T02:55:36;9.70;;;8.70;;
22826;SDS011;11580;52.562;13.418;2023-11-21T02:58:04;9.07;;;8.27;;
22826;SDS011;11580;52.562;13.418;2023-11-21T03:00:32;9.10;;;7.73;;
22826;SDS011;11580;52.562;13.418;2023-11-21T03:02:59;9.67;;;8.67;;
22826;SDS011;11580;52.562;13.418;2023-11-21T03:05:26;9.60;;;8.73;;
22826;SDS011;11580;52.562;13.418;2023-11-21T03:07:54;9.50;;;8.60;;
22826;SDS011;11580;52.562;13.418;2023-11-21T03:10:21;9.30;;;8.40;;
22826;SDS011;11580;52.562;13.418;2023-11-21T03:12:49;9.37;;;8.57;;
22826;SDS011;11580;52.562;13.418;2023-11-21T03:15:17;8.60;;;7.90;;
22826;SDS011;11580;52.562;13.418;2023-11-21T03:17:45;9.53;;;8.63;;
22826;SDS011;11580;52.562;13.418;2023-11-21T03:20:14;9.53;;;8.53;;
22826;SDS011;11580;52.562;13.418;2023-11-21T03:22:41;9.57;;;8.43;;
22826;SDS011;11580;52.562;13.418;2023-11-21T03:25:09;9.20;;;8.40;;
22826;SDS011;11580;52.562;13.418;2023-11-21T03:27:37;8.53;;;7.83;;
22826;SDS011;11580;52.562;13.418;2023-11-21T03:30:05;9.40;;;8.50;;
22826;SDS011;11580;52.562;13.418;2023-11-21T03:32:37;10.00;;;9.00;;
22826;SDS011;11580;52.562;13.418;2023-11-21T03:35:04;9.17;;;8.13;;
22826;SDS011;11580;52.562;13.418;2023-11-21T03:37:32;9.17;;;8.27;;
22826;SDS011;11580;52.562;13.418;2023-11-21T03:40:00;9.20;;;8.33;;
22826;SDS011;11580;52.562;13.418;2023-11-21T03:42:29;9.57;;;8.63;;
22826;SDS011;11580;52.562;13.418;2023-11-21T03:44:56;9.47;;;8.57;;
22826;SDS011;11580;52.562;13.418;2023-11-21T03:47:23;9.10;;;8.30;;
22826;SDS011;11580;52.562;13.418;2023-11-21T03:49:52;8.73;;;7.97;;
22826;SDS011;11580;52.562;13.418;2023-11-21T03:52:19;9.47;;;8.57;;
22826;SDS011;11580;52.562;13.418;2023-11-21T03:54:46;8.83;;;8.03;;
22826;SDS011;11580;52.562;13.418;2023-11-21T03:57:13;9.67;;;8.77;;
22826;SDS011;11580;52.562;13.418;2023-11-21T03:59:41;9.30;;;8.40;;
22826;SDS011;11580;52.562;13.418;2023-11-21T04:02:09;8.70;;;7.87;;
22826;SDS011;11580;52.562;13.418;2023-11-21T04:04:36;8.67;;;7.87;;
22826;SDS011;11580;52.562;13.418;2023-11-21T04:07:05;8.33;;;7.63;;
22826;SDS011;11580;52.562;13.418;2023-11-21T04:09:33;9.10;;;8.30;;
22826;SDS011;11580;52.562;13.418;2023-11-21T04:12:01;8.67;;;7.87;;
22826;SDS011;11580;52.562;13.418;2023-11-21T04:14:29;9.27;;;8.37;;
22826;SDS011;11580;52.562;13.418;2023-11-21T04:16:57;9.77;;;8.87;;
22826;SDS011;11580;52.562;13.418;2023-11-21T04:19:24;9.43;;;8.40;;
22826;SDS011;11580;52.562;13.418;2023-11-21T04:21:51;8.40;;;7.60;;
22826;SDS011;11580;52.562;13.418;2023-11-21T04:24:20;9.33;;;8.43;;
22826;SDS011;11580;52.562;13.418;2023-11-21T04:26:47;7.83;;;7.10;;
22826;SDS011;11580;52.562;13.418;2023-11-21T04:29:14;11.00;;;8.83;;
22826;SDS011;11580;52.562;13.418;2023-11-21T04:31:42;8.27;;;7.50;;
22826;SDS011;11580;52.562;13.418;2023-11-21T04:34:09;8.23;;;7.33;;
22826;SDS011;11580;52.562;13.418;2023-11-21T04:36:36;9.00;;;8.10;;
22826;SDS011;11580;52.562;13.418;2023-11-21T04:39:04;8.77;;;7.93;;
22826;SDS011;11580;52.562;13.418;2023-11-21T04:41:33;7.90;;;7.20;;
22826;SDS011;11580;52.562;13.418;2023-11-21T04:44:01;8.80;;;8.00;;
22826;SDS011;11580;52.562;13.418;2023-11-21T04:46:30;9.90;;;9.00;;
22826;SDS011;11580;52.562;13.418;2023-11-21T04:48:57;7.43;;;6.70;;
22826;SDS011;11580;52.562;13.418;2023-11-21T04:51:24;8.30;;;7.50;;
22826;SDS011;11580;52.562;13.418;2023-11-21T04:53:52;8.57;;;7.77;;
22826;SDS011;11580;52.562;13.418;2023-11-21T04:56:19;7.27;;;6.60;;
22826;SDS011;11580;52.562;13.418;2023-11-21T04:58:48;7.77;;;7.10;;
22826;SDS011;11580;52.562;13.418;2023-11-21T05:01:15;7.80;;;7.00;;
22826;SDS011;11580;52.562;13.418;2023-11-21T05:03:43;8.17;;;7.40;;
22826;SDS011;11580;52.562;13.418;2023-11-21T05:06:10;7.17;;;6.40;;
22826;SDS011;11580;52.562;13.418;2023-11-21T05:08:37;7.20;;;6.47;;
22826;SDS011;11580;52.562;13.418;2023-11-21T05:11:04;8.17;;;6.63;;
22826;SDS011;11580;52.562;13.418;2023-11-21T05:13:33;7.70;;;6.90;;
22826;SDS011;11580;52.562;13.418;2023-11-21T05:16:02;7.20;;;6.50;;
22826;SDS011;11580;52.562;13.418;2023-11-21T05:18:32;7.40;;;6.70;;
22826;SDS011;11580;52.562;13.418;2023-11-21T05:20:59;7.67;;;6.87;;
22826;SDS011;11580;52.562;13.418;2023-11-21T05:23:27;7.73;;;6.93;;
22826;SDS011;11580;52.562;13.418;2023-11-21T05:25:54;7.77;;;7.00;;
22826;SDS011;11580;52.562;13.418;2023-11-21T05:28:22;8.87;;;7.97;;
22826;SDS011;11580;52.562;13.418;2023-11-21T05:30:49;8.23;;;7.40;;
22826;SDS011;11580;52.562;13.418;2023-11-21T05:33:17;8.50;;;7.70;;
22826;SDS011;11580;52.562;13.418;2023-11-21T05:35:45;6.77;;;6.23;;
22826;SDS011;11580;52.562;13.418;2023-11-21T05:38:13;8.23;;;7.53;;
22826;SDS011;11580;52.562;13.418;2023-11-21T05:40:40;8.30;;;7.50;;
22826;SDS011;11580;52.562;13.418;2023-11-21T05:43:09;8.50;;;7.70;;
22826;SDS011;11580;52.562;13.418;2023-11-21T05:45:37;8.43;;;7.63;;
22826;SDS011;11580;52.562;13.418;2023-11-21T05:48:04;7.13;;;6.53;;
22826;SDS011;11580;52.562;13.418;2023-11-21T05:50:33;6.80;;;6.20;;
22826;SDS011;11580;52.562;13.418;2023-11-21T05:53:00;8.23;;;7.37;;
22826;SDS011;11580;52.562;13.418;2023-11-21T05:55:27;7.77;;;6.97;;
22826;SDS011;11580;52.562;13.418;2023-11-21T05:57:55;6.73;;;6.23;;
22826;SDS011;11580;52.562;13.418;2023-11-21T06:00:22;6.33;;;5.73;;
22826;SDS011;11580;52.562;13.418;2023-11-21T06:02:50;6.90;;;6.30;;
22826;SDS011;11580;52.562;13.418;2023-11-21T06:05:19;7.67;;;6.97;;
22826;SDS011;11580;52.562;13.418;2023-11-21T06:07:50;7.20;;;6.50;;
22826;SDS011;11580;52.562;13.418;2023-11-21T06:10:19;6.50;;;5.90;;
22826;SDS011;11580;52.562;13.418;2023-11-21T06:12:49;7.30;;;6.70;;
22826;SDS011;11580;52.562;13.418;2023-11-21T06:15:16;6.63;;;6.03;;
22826;SDS011;11580;52.562;13.418;2023-11-21T06:17:44;6.37;;;5.83;;
22826;SDS011;11580;52.562;13.418;2023-11-21T06:20:14;5.90;;;5.30;;
22826;SDS011;11580;52.562;13.418;2023-11-21T06:22:44;6.43;;;5.90;;
22826;SDS011;11580;52.562;13.418;2023-11-21T06:25:15;6.73;;;6.13;;
22826;SDS011;11580;52.562;13.418;2023-11-21T06:27:43;6.70;;;6.10;;
22826;SDS011;11580;52.562;13.418;2023-11-21T06:30:12;6.87;;;6.27;;
22826;SDS011;11580;52.562;13.418;2023-11-21T06:32:41;5.00;;;4.57;;
22826;SDS011;11580;52.562;13.418;2023-11-21T06:35:10;6.80;;;6.10;;
22826;SDS011;11580;52.562;13.418;2023-11-21T06:37:38;6.30;;;5.70;;
22826;SDS011;11580;52.562;13.418;2023-11-21T06:40:06;7.43;;;6.03;;
22826;SDS011;11580;52.562;13.418;2023-11-21T06:42:36;6.33;;;5.77;;
22826;SDS011;11580;52.562;13.418;2023-11-21T06:45:04;6.50;;;5.90;;
22826;SDS011;11580;52.562;13.418;2023-11-21T06:47:36;6.13;;;5.53;;
22826;SDS011;11580;52.562;13.418;2023-11-21T06:50:05;6.97;;;6.33;;
22826;SDS011;11580;52.562;13.418;2023-11-21T06:52:33;5.33;;;4.90;;
22826;SDS011;11580;52.562;13.418;2023-11-21T06:55:00;6.20;;;5.60;;
22826;SDS011;11580;52.562;13.418;2023-11-21T06:57:28;6.10;;;5.50;;
22826;SDS011;11580;52.562;13.418;2023-11-21T06:59:57;5.60;;;5.10;;
22826;SDS011;11580;52.562;13.418;2023-11-21T07:02:24;5.47;;;4.97;;
22826;SDS011;11580;52.562;13.418;2023-11-21T07:04:51;5.73;;;5.23;;
22826;SDS011;11580;52.562;13.418;2023-11-21T07:07:18;6.20;;;5.60;;
22826;SDS011;11580;52.562;13.418;2023-11-21T07:09:46;5.00;;;4.60;;
22826;SDS011;11580;52.562;13.418;2023-11-21T07:12:14;5.00;;;4.60;;
22826;SDS011;11580;52.562;13.418;2023-11-21T07:14:41;6.50;;;5.20;;
22826;SDS011;11580;52.562;13.418;2023-11-21T07:17:11;5.90;;;5.30;;
22826;SDS011;11580;52.562;13.418;2023-11-21T07:19:38;5.33;;;4.93;;
22826;SDS011;11580;52.562;13.418;2023-11-21T07:22:06;5.97;;;5.47;;
22826;SDS011;11580;52.562;13.418;2023-11-21T07:24:34;6.33;;;4.87;;
22826;SDS011;11580;52.562;13.418;2023-11-21T07:27:02;6.10;;;5.60;;
22826;SDS011;11580;52.562;13.418;2023-11-21T07:29:30;5.50;;;5.00;;
22826;SDS011;11580;52.562;13.418;2023-11-21T07:31:58;5.60;;;5.10;;
22826;SDS011;11580;52.562;13.418;2023-11-21T07:34:27;5.70;;;5.20;;
22826;SDS011;11580;52.562;13.418;2023-11-21T07:36:54;5.80;;;5.30;;
22826;SDS011;11580;52.562;13.418;2023-11-21T07:39:21;5.53;;;5.03;;
22826;SDS011;11580;52.562;13.418;2023-11-21T07:41:48;5.40;;;4.90;;
22826;SDS011;11580;52.562;13.418;2023-11-21T07:44:15;5.93;;;5.43;;
22826;SDS011;11580;52.562;13.418;2023-11-21T07:46:45;5.80;;;5.30;;
22826;SDS011;11580;52.562;13.418;2023-11-21T07:49:13;5.50;;;5.00;;
22826;SDS011;11580;52.562;13.418;2023-11-21T07:51:42;5.40;;;5.00;;
22826;SDS011;11580;52.562;13.418;2023-11-21T07:54:10;6.10;;;5.50;;
22826;SDS011;11580;52.562;13.418;2023-11-21T07:56:37;5.80;;;5.30;;
22826;SDS011;11580;52.562;13.418;2023-11-21T07:59:04;5.50;;;5.00;;
22826;SDS011;11580;52.562;13.418;2023-11-21T08:01:32;5.33;;;4.83;;
22826;SDS011;11580;52.562;13.418;2023-11-21T08:03:59;4.93;;;4.53;;
22826;SDS011;11580;52.562;13.418;2023-11-21T08:06:28;5.63;;;5.07;;
22826;SDS011;11580;52.562;13.418;2023-11-21T08:08:57;5.20;;;4.80;;
22826;SDS011;11580;52.562;13.418;2023-11-21T08:11:24;4.90;;;4.60;;
22826;SDS011;11580;52.562;13.418;2023-11-21T08:13:54;5.10;;;4.70;;
22826;SDS011;11580;52.562;13.418;2023-11-21T08:16:21;5.27;;;4.77;;
22826;SDS011;11580;52.562;13.418;2023-11-21T08:18:49;4.57;;;4.17;;
22826;SDS011;11580;52.562;13.418;2023-11-21T08:21:16;4.80;;;4.40;;
22826;SDS011;11580;52.562;13.418;2023-11-21T08:23:44;5.60;;;5.10;;
22826;SDS011;11580;52.562;13.418;2023-11-21T08:26:13;4.70;;;4.30;;
22826;SDS011;11580;52.562;13.418;2023-11-21T08:28:43;4.47;;;4.07;;
22826;SDS011;11580;52.562;13.418;2023-11-21T08:31:10;4.87;;;4.40;;
22826;SDS011;11580;52.562;13.418;2023-11-21T08:33:37;5.17;;;4.67;;
22826;SDS011;11580;52.562;13.418;2023-11-21T08:36:06;5.20;;;4.70;;
22826;SDS011;11580;52.562;13.418;2023-11-21T08:38:36;6.40;;;4.70;;
22826;SDS011;11580;52.562;13.418;2023-11-21T08:41:04;4.27;;;3.97;;
22826;SDS011;11580;52.562;13.418;2023-11-21T08:43:35;5.00;;;4.50;;
22826;SDS011;11580;52.562;13.418;2023-11-21T08:46:04;5.03;;;4.63;;
22826;SDS011;11580;52.562;13.418;2023-11-21T08:48:34;5.77;;;5.27;;
22826;SDS011;11580;52.562;13.418;2023-11-21T08:51:02;4.97;;;4.47;;
22826;SDS011;11580;52.562;13.418;2023-11-21T08:53:30;5.87;;;4.63;;
22826;SDS011;11580;52.562;13.418;2023-11-21T08:55:58;9.50;;;6.00;;
22826;SDS011;11580;52.562;13.418;2023-11-21T08:58:25;7.40;;;5.67;;
22826;SDS011;11580;52.562;13.418;2023-11-21T09:00:54;6.20;;;5.20;;
22826;SDS011;11580;52.562;13.418;2023-11-21T09:03:21;7.50;;;5.53;;
22826;SDS011;11580;52.562;13.418;2023-11-21T09:05:48;7.13;;;5.87;;
22826;SDS011;11580;52.562;13.418;2023-11-21T09:08:15;6.30;;;5.40;;
22826;SDS011;11580;52.562;13.418;2023-11-21T09:10:43;7.37;;;6.67;;
22826;SDS011;11580;52.562;13.418;2023-11-21T09:13:12;9.10;;;6.20;;
22826;SDS011;11580;52.562;13.418;2023-11-21T09:15:41;8.60;;;6.53;;
22826;SDS011;11580;52.562;13.418;2023-11-21T09:18:13;8.20;;;6.30;;
22826;SDS011;11580;52.562;13.418;2023-11-21T09:20:40;9.43;;;6.27;;
22826;SDS011;11580;52.562;13.418;2023-11-21T09:23:09;9.23;;;7.27;;
22826;SDS011;11580;52.562;13.418;2023-11-21T09:25:36;10.47;;;7.20;;
22826;SDS011;11580;52.562;13.418;2023-11-21T09:28:03;10.77;;;7.03;;
22826;SDS011;11580;52.562;13.418;2023-11-21T09:30:33;8.10;;;6.53;;
22826;SDS011;11580;52.562;13.418;2023-11-21T09:33:01;10.50;;;7.00;;
22826;SDS011;11580;52.562;13.418;2023-11-21T09:35:31;9.03;;;6.67;;
22826;SDS011;11580;52.562;13.418;2023-11-21T09:37:59;9.40;;;6.77;;
22826;SDS011;11580;52.562;13.418;2023-11-21T09:40:30;7.97;;;6.00;;
22826;SDS011;11580;52.562;13.418;2023-11-21T09:42:58;8.53;;;6.03;;
22826;SDS011;11580;52.562;13.418;2023-11-21T09:45:26;11.23;;;6.50;;
22826;SDS011;11580;52.562;13.418;2023-11-21T09:47:56;8.23;;;5.70;;
22826;SDS011;11580;52.562;13.418;2023-11-21T09:50:24;6.47;;;5.57;;
22826;SDS011;11580;52.562;13.418;2023-11-21T09:52:57;6.23;;;5.53;;
22826;SDS011;11580;52.562;13.418;2023-11-21T09:55:41;6.63;;;5.00;;
22826;SDS011;11580;52.562;13.418;2023-11-21T09:58:10;5.23;;;4.67;;
22826;SDS011;11580;52.562;13.418;2023-11-21T10:00:39;5.63;;;5.10;;
22826;SDS011;11580;52.562;13.418;2023-11-21T10:03:08;5.67;;;4.77;;
22826;SDS011;11580;52.562;13.418;2023-11-21T10:05:36;5.13;;;4.73;;
22826;SDS011;11580;52.562;13.418;2023-11-21T10:08:07;6.00;;;4.73;;
22826;SDS011;11580;52.562;13.418;2023-11-21T10:10:35;5.10;;;4.60;;
22826;SDS011;11580;52.562;13.418;2023-11-21T10:13:06;5.60;;;4.50;;
22826;SDS011;11580;52.562;13.418;2023-11-21T10:15:37;6.00;;;4.20;;
22826;SDS011;11580;52.562;13.418;2023-11-21T10:18:13;4.33;;;3.93;;
22826;SDS011;11580;52.562;13.418;2023-11-21T10:20:41;4.80;;;3.50;;
22826;SDS011;11580;52.562;13.418;2023-11-21T10:23:13;3.87;;;3.47;;
22826;SDS011;11580;52.562;13.418;2023-11-21T10:25:41;4.23;;;3.63;;
22826;SDS011;11580;52.562;13.418;2023-11-21T10:28:08;3.40;;;3.10;;
22826;SDS011;11580;52.562;13.418;2023-11-21T10:30:37;3.37;;;3.07;;
22826;SDS011;11580;52.562;13.418;2023-11-21T10:33:05;3.90;;;3.60;;
22826;SDS011;11580;52.562;13.418;2023-11-21T10:35:43;3.93;;;3.53;;
22826;SDS011;11580;52.562;13.418;2023-11-21T10:38:17;3.67;;;3.33;;
22826;SDS011;11580;52.562;13.418;2023-11-21T10:40:47;3.27;;;2.80;;
22826;SDS011;11580;52.562;13.418;2023-11-21T10:43:15;2.90;;;2.70;;
22826;SDS011;11580;52.562;13.418;2023-11-21T10:45:43;3.80;;;3.50;;
22826;SDS011;11580;52.562;13.418;2023-11-21T10:48:12;3.50;;;3.00;;
22826;SDS011;11580;52.562;13.418;2023-11-21T10:50:42;3.60;;;3.30;;
22826;SDS011;11580;52.562;13.418;2023-11-21T10:53:11;3.50;;;3.20;;
22826;SDS011;11580;52.562;13.418;2023-11-21T10:55:40;3.23;;;3.00;;
22826;SDS011;11580;52.562;13.418;2023-11-21T10:58:09;3.00;;;2.80;;
22826;SDS011;11580;52.562;13.418;2023-11-21T11:00:40;3.33;;;3.03;;
22826;SDS011;11580;52.562;13.418;2023-11-21T11:03:10;2.97;;;2.77;;
22826;SDS011;11580;52.562;13.418;2023-11-21T11:05:39;3.40;;;3.10;;
22826;SDS011;11580;52.562;13.418;2023-11-21T11:08:11;3.70;;;3.40;;
22826;SDS011;11580;52.562;13.418;2023-11-21T11:10:45;3.47;;;3.17;;
22826;SDS011;11580;52.562;13.418;2023-11-21T11:13:13;3.70;;;3.40;;
22826;SDS011;11580;52.562;13.418;2023-11-21T11:15:40;4.00;;;3.67;;
22826;SDS011;11580;52.562;13.418;2023-11-21T11:18:09;3.30;;;3.00;;
22826;SDS011;11580;52.562;13.418;2023-11-21T11:20:38;4.30;;;3.90;;
22826;SDS011;11580;52.562;13.418;2023-11-21T11:26:16;4.10;;;3.20;;
22826;SDS011;11580;52.562;13.418;2023-11-21T11:29:14;4.70;;;3.73;;
22826;SDS011;11580;52.562;13.418;2023-11-21T11:31:55;3.77;;;3.47;;
22826;SDS011;11580;52.562;13.418;2023-11-21T11:34:40;3.53;;;3.27;;
22826;SDS011;11580;52.562;13.418;2023-11-21T11:37:15;4.00;;;3.70;;
22826;SDS011;11580;52.562;13.418;2023-11-21T11:39:42;3.97;;;3.53;;
22826;SDS011;11580;52.562;13.418;2023-11-21T11:42:13;3.80;;;3.50;;
22826;SDS011;11580;52.562;13.418;2023-11-21T11:44:46;3.33;;;3.13;;
22826;SDS011;11580;52.562;13.418;2023-11-21T11:47:19;3.10;;;2.90;;
22826;SDS011;11580;52.562;13.418;2023-11-21T11:49:56;4.47;;;3.50;;
22826;SDS011;11580;52.562;13.418;2023-11-21T11:52:32;3.20;;;3.00;;
22826;SDS011;11580;52.562;13.418;2023-11-21T11:55:02;3.50;;;3.20;;
22826;SDS011;11580;52.562;13.418;2023-11-21T11:57:33;2.90;;;2.70;;
22826;SDS011;11580;52.562;13.418;2023-11-21T12:00:14;3.60;;;3.30;;
22826;SDS011;11580;52.562;13.418;2023-11-21T12:02:46;2.87;;;2.67;;
22826;SDS011;11580;52.562;13.418;2023-11-21T12:05:15;3.50;;;3.20;;
22826;SDS011;11580;52.562;13.418;2023-11-21T12:07:47;3.30;;;3.07;;
22826;SDS011;11580;52.562;13.418;2023-11-21T12:10:18;2.70;;;2.50;;
22826;SDS011;11580;52.562;13.418;2023-11-21T12:12:51;3.73;;;3.30;;
22826;SDS011;11580;52.562;13.418;2023-11-21T12:15:21;3.07;;;2.77;;
22826;SDS011;11580;52.562;13.418;2023-11-21T12:17:50;3.30;;;3.00;;
22826;SDS011;11580;52.562;13.418;2023-11-21T12:20:19;4.20;;;3.80;;
22826;SDS011;11580;52.562;13.418;2023-11-21T12:22:48;3.73;;;3.43;;
22826;SDS011;11580;52.562;13.418;2023-11-21T12:25:17;3.53;;;3.23;;
22826;SDS011;11580;52.562;13.418;2023-11-21T12:27:47;3.90;;;3.50;;
22826;SDS011;11580;52.562;13.418;2023-11-21T12:30:17;3.93;;;3.63;;
22826;SDS011;11580;52.562;13.418;2023-11-21T12:32:48;4.20;;;3.80;;
22826;SDS011;11580;52.562;13.418;2023-11-21T12:35:16;4.40;;;4.00;;
22826;SDS011;11580;52.562;13.418;2023-11-21T12:37:46;4.27;;;3.90;;
22826;SDS011;11580;52.562;13.418;2023-11-21T12:40:15;4.10;;;3.80;;
22826;SDS011;11580;52.562;13.418;2023-11-21T12:42:43;3.60;;;3.40;;
22826;SDS011;11580;52.562;13.418;2023-11-21T12:45:24;3.87;;;3.53;;
22826;SDS011;11580;52.562;13.418;2023-11-21T12:47:54;4.60;;;4.30;;
22826;SDS011;11580;52.562;13.418;2023-11-21T12:50:25;3.90;;;3.60;;
22826;SDS011;11580;52.562;13.418;2023-11-21T12:52:58;4.27;;;3.90;;
22826;SDS011;11580;52.562;13.418;2023-11-21T12:55:29;4.27;;;3.97;;
22826;SDS011;11580;52.562;13.418;2023-11-21T12:58:00;4.43;;;4.03;;
22826;SDS011;11580;52.562;13.418;2023-11-21T13:00:35;4.33;;;3.87;;
22826;SDS011;11580;52.562;13.418;2023-11-21T13:03:08;5.13;;;4.73;;
22826;SDS011;11580;52.562;13.418;2023-11-21T13:05:42;4.37;;;4.00;;
22826;SDS011;11580;52.562;13.418;2023-11-21T13:08:12;4.77;;;4.37;;
22826;SDS011;11580;52.562;13.418;2023-11-21T13:10:44;4.80;;;4.40;;
22826;SDS011;11580;52.562;13.418;2023-11-21T13:13:12;4.70;;;4.30;;
22826;SDS011;11580;52.562;13.418;2023-11-21T13:15:48;5.03;;;4.63;;
22826;SDS011;11580;52.562;13.418;2023-11-21T13:18:17;6.20;;;4.80;;
22826;SDS011;11580;52.562;13.418;2023-11-21T13:20:46;4.70;;;4.07;;
22826;SDS011;11580;52.562;13.418;2023-11-21T13:23:14;5.27;;;4.93;;
22826;SDS011;11580;52.562;13.418;2023-11-21T13:25:42;5.73;;;5.23;;
22826;SDS011;11580;52.562;13.418;2023-11-21T13:28:10;5.70;;;5.03;;
22826;SDS011;11580;52.562;13.418;2023-11-21T13:30:40;5.37;;;4.97;;
22826;SDS011;11580;52.562;13.418;2023-11-21T13:33:11;6.00;;;5.40;;
22826;SDS011;11580;52.562;13.418;2023-11-21T13:35:43;5.20;;;4.70;;
22826;SDS011;11580;52.562;13.418;2023-11-21T13:38:14;5.93;;;5.37;;
22826;SDS011;11580;52.562;13.418;2023-11-21T13:40:46;6.23;;;5.63;;
22826;SDS011;11580;52.562;13.418;2023-11-21T13:43:17;5.47;;;4.97;;
22826;SDS011;11580;52.562;13.418;2023-11-21T13:45:49;7.60;;;6.40;;
22826;SDS011;11580;52.562;13.418;2023-11-21T13:48:25;5.83;;;5.27;;
22826;SDS011;11580;52.562;13.418;2023-11-21T13:50:59;6.00;;;5.40;;
22826;SDS011;11580;52.562;13.418;2023-11-21T13:53:35;6.63;;;6.03;;
22826;SDS011;11580;52.562;13.418;2023-11-21T13:56:04;7.77;;;7.00;;
22826;SDS011;11580;52.562;13.418;2023-11-21T13:58:32;8.20;;;7.40;;
22826;SDS011;11580;52.562;13.418;2023-11-21T14:01:10;8.30;;;7.50;;
22826;SDS011;11580;52.562;13.418;2023-11-21T14:03:55;9.43;;;8.53;;
22826;SDS011;11580;52.562;13.418;2023-11-21T14:06:27;8.10;;;7.30;;
22826;SDS011;11580;52.562;13.418;2023-11-21T14:08:59;9.90;;;8.43;;
22826;SDS011;11580;52.562;13.418;2023-11-21T14:11:30;9.40;;;8.50;;
22826;SDS011;11580;52.562;13.418;2023-11-21T14:13:59;9.60;;;8.60;;
22826;SDS011;11580;52.562;13.418;2023-11-21T14:16:27;11.60;;;10.43;;
22826;SDS011;11580;52.562;13.418;2023-11-21T14:18:55;11.23;;;10.10;;
22826;SDS011;11580;52.562;13.418;2023-11-21T14:21:29;12.57;;;11.30;;
22826;SDS011;11580;52.562;13.418;2023-11-21T14:23:57;12.23;;;11.00;;
22826;SDS011;11580;52.562;13.418;2023-11-21T14:26:25;12.00;;;10.90;;
22826;SDS011;11580;52.562;13.418;2023-11-21T14:28:54;11.47;;;10.27;;
22826;SDS011;11580;52.562;13.418;2023-11-21T14:31:22;11.93;;;10.43;;
22826;SDS011;11580;52.562;13.418;2023-11-21T14:33:49;14.30;;;12.90;;
22826;SDS011;11580;52.562;13.418;2023-11-21T14:36:18;15.33;;;13.67;;
22826;SDS011;11580;52.562;13.418;2023-11-21T14:38:46;15.60;;;14.00;;
22826;SDS011;11580;52.562;13.418;2023-11-21T14:41:13;16.23;;;14.73;;